»·PEaware :: SWA621 KSTL-KOMA

SWA621 :: KSTL-KOMA

FLIGHT INFORMATION

Flight Status: Arrived
Operator:
Southwest Airlines
More flights by this operator :: More flights under this callsign
Pilot: Drew Leevy (13237)
Aircraft: BOEING 737-300
(B733)
More flights by this aircraft type
Origin: KSTL Lambert-St Louis Intl
United States
Destination: KOMA Eppley
United States
More flights between these airports :: More routes between these airports
Route: WHRLI4 MCM LMN MARWI3
File this flight plan on PilotEdge
Remarks: Sample flight plan
Altitude:
(Current/Filed)
28,000ft
Speed:
(Current/Filed)
115kts
Departed: 31-May-17 07:48 PM
Arrived: 31-May-17 08:42 PM
Distance/Time
Traveled:
297nm/0:54
Distance/Time
To Go:
Arrived

Flight Plot

Page will automatically refresh every two minutes.

Flight plan parsing failed; only flown route is shown


Map Options




Map Legend


Flown Route
Filed Route
Departure Airport
Arrival Airport
Navaid (VOR, NDB)
Fix

Horizontal Profiles

Position Reports

Time Latitude Longitude Heading Altitude Ground
Speed
31-May-17 19:49 38.935918 -90.742844 302 13634ft 339kts
31-May-17 19:50 38.987568 -90.845854 301 16544ft 350kts
31-May-17 19:51 39.040681 -90.952054 301 19183ft 361kts
31-May-17 19:52 39.095271 -91.061778 301 21640ft 371kts
31-May-17 19:53 39.153966 -91.172096 304 23819ft 382kts
31-May-17 19:54 39.214952 -91.285142 304 25813ft 393kts
31-May-17 19:55 39.277367 -91.401205 304 27849ft 396kts
31-May-17 19:56 39.339294 -91.516776 304 28020ft 390kts
31-May-17 19:57 39.400384 -91.631191 304 28011ft 389kts
31-May-17 19:58 39.460840 -91.745048 304 28012ft 389kts
31-May-17 19:59 39.522055 -91.860546 304 28013ft 389kts
31-May-17 20:00 39.582957 -91.975840 304 28011ft 389kts
31-May-17 20:01 39.643969 -92.091777 304 28011ft 389kts
31-May-17 20:02 39.704601 -92.207343 304 28011ft 389kts
31-May-17 20:03 39.765198 -92.323314 304 28011ft 389kts
31-May-17 20:04 39.825647 -92.439435 304 28011ft 389kts
31-May-17 20:05 39.885858 -92.555757 304 28011ft 389kts
31-May-17 20:06 39.945136 -92.670653 303 27989ft 389kts
31-May-17 20:07 40.005349 -92.787785 303 28012ft 389kts
31-May-17 20:08 40.065250 -92.904571 303 28011ft 388kts
31-May-17 20:09 40.120455 -93.012331 303 28008ft 389kts
31-May-17 20:10 40.180288 -93.129559 303 28012ft 388kts
31-May-17 20:11 40.239622 -93.246475 303 28041ft 389kts
31-May-17 20:12 40.299127 -93.364182 303 28038ft 388kts
31-May-17 20:13 40.358458 -93.481984 303 28010ft 389kts
31-May-17 20:14 40.417938 -93.600529 303 28012ft 390kts
31-May-17 20:15 40.475366 -93.715602 303 28012ft 390kts
31-May-17 20:16 40.534700 -93.834814 303 28011ft 389kts
31-May-17 20:17 40.593780 -93.953958 302 28011ft 389kts
31-May-17 20:18 40.618240 -94.092763 283 28014ft 393kts
31-May-17 20:19 40.641043 -94.232367 284 28020ft 392kts
31-May-17 20:20 40.664250 -94.372590 284 28039ft 392kts
31-May-17 20:21 40.687220 -94.512395 284 28038ft 392kts
31-May-17 20:22 40.709968 -94.651953 284 28038ft 392kts
31-May-17 20:23 40.732504 -94.791636 283 27122ft 392kts
31-May-17 20:24 40.754396 -94.928191 283 25185ft 376kts
31-May-17 20:25 40.775428 -95.060300 284 23143ft 365kts
31-May-17 20:26 40.828841 -95.168931 307 21122ft 354kts
31-May-17 20:27 40.889300 -95.269261 307 19204ft 346kts
31-May-17 20:28 40.948136 -95.367328 307 17492ft 334kts
31-May-17 20:29 41.000423 -95.454951 306 16758ft 288kts
31-May-17 20:30 41.049322 -95.537549 307 14984ft 283kts
31-May-17 20:31 41.097395 -95.618521 307 13267ft 278kts
31-May-17 20:32 41.155259 -95.679279 322 11963ft 270kts
31-May-17 20:33 41.217573 -95.736676 323 10225ft 271kts
31-May-17 20:34 41.279066 -95.792868 324 8669ft 266kts
31-May-17 20:35 41.339801 -95.847070 324 7148ft 262kts
31-May-17 20:36 41.397243 -95.898579 324 6477ft 226kts
31-May-17 20:37 41.445446 -95.941070 324 5705ft 201kts
31-May-17 20:38 41.490582 -95.984254 297 4349ft 205kts
31-May-17 20:39 41.459696 -96.038474 177 2923ft 194kts
31-May-17 20:40 41.421793 -96.006364 136 2362ft 146kts
31-May-17 20:41 41.390178 -95.972537 144 2248ft 147kts
31-May-17 20:42 41.356496 -95.941224 144 2093ft 150kts
31-May-17 20:43 41.323286 -95.909752 144 1285ft 144kts
31-May-17 20:44 41.298054 -95.885697 144 990ft 36kts
31-May-17 20:45 41.295224 -95.884838 324 990ft 21kts
31-May-17 20:46 41.297994 -95.890184 233 990ft 20kts
31-May-17 20:47 41.298469 -95.896059 359 990ft 20kts
31-May-17 20:48 41.301322 -95.897862 252 990ft 0kts
31-May-17 20:49 41.301322 -95.897862 252 990ft 0kts
31-May-17 20:50 41.301322 -95.897862 252 990ft 0kts
31-May-17 20:51 41.301322 -95.897862 252 990ft 0kts
31-May-17 20:52 41.301322 -95.897862 252 990ft 0kts
31-May-17 20:53 41.301322 -95.897862 252 990ft 0kts
31-May-17 20:54 41.301322 -95.897862 252 990ft 0kts
31-May-17 20:55 41.301322 -95.897862 252 990ft 0kts
31-May-17 20:56 41.301322 -95.897862 252 990ft 0kts
31-May-17 20:57 41.301322 -95.897862 252 990ft 0kts
31-May-17 20:58 41.301475 -95.897192 253 990ft 0kts

Navigation Log

Ident Type
Flight plan parsing failed, navigation log unavailable